首页
METAR-TAF:

METAR-TAF

机场 :

Payam

卡拉季, 伊朗

纬度: 35-46-34N, 经度: 050-49-36E, 海拔: 1271米

当前天气观测

该预报发布于55分钟前的08:00 UTC
风速6节,风向西转西北
温度 17°C
湿度 48%
气压 1015 hPa
能见度10公里或以上
少量云层高于3500英尺, 塔状积云.
多云层高于18000英尺

METAR: OIIP 030800Z 29006KT 9999 FEW035TCU BKN180 17/06 Q1015 A2997

时间: 13:25 (08:55 UTC)


TAF: 丢失

超过4000个机场的气象观测和天气预报(METAR&TAF报告)。

可查询的气象台以黄色和红色小点在地图上表示。

将鼠标移到小点上方,可查看气象台名称。

然后点击查看天气观测和预报。

如需切换地图:点击带黑十字的绿色按钮放大地图;点击带横线的绿色按钮缩小地图;或者点击绿色箭头查看邻近地区的地图。


METAR-TAF: